createdAt,value
2019-05-17T00:00:28.701Z,97336.79
2019-05-17T00:01:32.407Z,97335.61
2019-05-17T00:02:37.521Z,97330.82
2019-05-17T00:03:40.309Z,97330.82
2019-05-17T00:04:43.357Z,97336.94
2019-05-17T00:05:47.253Z,97332.44
2019-05-17T00:06:50.356Z,97332.44
2019-05-17T00:07:54.042Z,97331.75
2019-05-17T00:08:56.911Z,97330.73
2019-05-17T00:10:00.289Z,97328.99
2019-05-17T00:11:03.184Z,97330.53
2019-05-17T00:12:07.496Z,97327.06
2019-05-17T00:13:17.443Z,97330.86
2019-05-17T00:14:21.191Z,97330.86
2019-05-17T00:15:24.061Z,97325.76
2019-05-17T00:16:27.401Z,97326.04
2019-05-17T00:17:39.232Z,97324.20
2019-05-17T00:18:43.524Z,97316.88
2019-05-17T00:19:56.714Z,97316.42
2019-05-17T00:20:59.702Z,97311.55
2019-05-17T00:22:02.532Z,97308.19
2019-05-17T00:23:07.139Z,97311.73
2019-05-17T00:24:10.131Z,97298.98
2019-05-17T00:25:13.585Z,97298.98
2019-05-17T00:26:16.725Z,97301.02
2019-05-17T00:27:20.295Z,97298.44
2019-05-17T00:28:23.127Z,97298.44
2019-05-17T00:29:31.014Z,97297.03
2019-05-17T00:30:33.855Z,97294.39
2019-05-17T00:31:37.803Z,97294.39
2019-05-17T00:32:40.970Z,97281.94
2019-05-17T00:33:44.345Z,97281.94
2019-05-17T00:34:47.273Z,97275.05
2019-05-17T00:35:50.653Z,97285.53
2019-05-17T00:36:57.271Z,97285.53
2019-05-17T00:37:59.997Z,97284.16
2019-05-17T00:39:03.123Z,97284.16
2019-05-17T00:40:07.314Z,97279.41
2019-05-17T00:41:10.272Z,97281.17
2019-05-17T00:42:14.142Z,97279.62
2019-05-17T00:43:19.550Z,97279.62
2019-05-17T00:44:27.216Z,97282.13
2019-05-17T00:45:30.440Z,97277.67
2019-05-17T00:46:34.333Z,97277.88
2019-05-17T00:47:37.566Z,97272.45
2019-05-17T00:48:41.365Z,97276.52
2019-05-17T00:49:46.462Z,97272.78
2019-05-17T00:51:01.693Z,97272.78
2019-05-17T00:52:00.531Z,97274.49
2019-05-17T00:53:04.254Z,97271.64
2019-05-17T00:54:07.090Z,97266.73
2019-05-17T00:55:10.505Z,97266.02
2019-05-17T00:56:13.672Z,97267.95
2019-05-17T00:57:17.357Z,97263.21
2019-05-17T00:58:20.178Z,97262.33
2019-05-17T00:59:26.352Z,97257.30
2019-05-17T01:00:29.354Z,97262.19
2019-05-17T01:01:32.847Z,97260.35
2019-05-17T01:02:36.328Z,97249.80
2019-05-17T01:03:40.064Z,97255.53
2019-05-17T01:04:42.943Z,97256.34
2019-05-17T01:05:47.375Z,97252.91
2019-05-17T01:06:50.207Z,97251.00
2019-05-17T01:07:53.981Z,97255.98
2019-05-17T01:09:01.874Z,97249.84
2019-05-17T01:10:02.271Z,97249.84
2019-05-17T01:11:07.127Z,97251.41
2019-05-17T01:12:10.111Z,97251.41
2019-05-17T01:13:12.920Z,97245.14
2019-05-17T01:14:17.568Z,97245.14
2019-05-17T01:15:20.948Z,97246.70
2019-05-17T01:16:24.312Z,97246.70
2019-05-17T01:17:27.228Z,97249.84
2019-05-17T01:18:30.646Z,97252.55
2019-05-17T01:19:33.443Z,97244.43
2019-05-17T01:20:39.538Z,97246.52
2019-05-17T01:21:47.292Z,97247.88
2019-05-17T01:22:56.752Z,97247.88
2019-05-17T01:24:00.243Z,97243.47
2019-05-17T01:25:03.674Z,97241.28
2019-05-17T01:26:07.497Z,97243.47
2019-05-17T01:27:11.048Z,97243.47
2019-05-17T01:28:16.415Z,97240.52
2019-05-17T01:29:22.355Z,97234.18
2019-05-17T01:30:26.630Z,97233.48
2019-05-17T01:31:30.173Z,97237.23
2019-05-17T01:32:32.963Z,97237.66
2019-05-17T01:33:36.852Z,97231.86
2019-05-17T01:34:43.007Z,97231.91
2019-05-17T01:35:46.702Z,97232.14
2019-05-17T01:36:49.631Z,97233.54
2019-05-17T01:37:56.560Z,97233.94
2019-05-17T01:39:13.190Z,97233.94
2019-05-17T01:40:06.800Z,97237.13
2019-05-17T01:41:10.099Z,97234.66
2019-05-17T01:42:13.543Z,97239.45
2019-05-17T01:43:16.809Z,97234.08
2019-05-17T01:44:21.275Z,97236.84
2019-05-17T01:45:24.077Z,97236.84
2019-05-17T01:46:27.885Z,97234.61
2019-05-17T01:47:31.083Z,97224.52
2019-05-17T01:48:36.512Z,97226.72
2019-05-17T01:49:38.962Z,97232.78
2019-05-17T01:50:42.303Z,97222.89
2019-05-17T01:51:46.470Z,97221.00
2019-05-17T01:52:50.179Z,97227.92
2019-05-17T01:53:57.208Z,97227.92
2019-05-17T01:55:01.077Z,97225.20
2019-05-17T01:56:06.192Z,97223.08
2019-05-17T01:57:08.936Z,97223.14
2019-05-17T01:58:11.810Z,97223.14
2019-05-17T01:59:17.281Z,97218.92
2019-05-17T02:00:20.148Z,97224.66
2019-05-17T02:01:23.495Z,97230.07
2019-05-17T02:02:31.792Z,97228.41
2019-05-17T02:03:37.305Z,97220.19
2019-05-17T02:04:39.659Z,97220.19
2019-05-17T02:05:47.337Z,97222.12
2019-05-17T02:06:50.587Z,97219.12
2019-05-17T02:07:54.081Z,97217.76
2019-05-17T02:08:57.111Z,97217.76
2019-05-17T02:10:01.537Z,97209.05
2019-05-17T02:11:12.593Z,97204.74
2019-05-17T02:12:17.280Z,97215.92
2019-05-17T02:13:20.483Z,97213.17
2019-05-17T02:14:26.863Z,97211.81
2019-05-17T02:15:29.688Z,97214.97
2019-05-17T02:16:37.585Z,97203.41
2019-05-17T02:17:39.644Z,97208.39
2019-05-17T02:18:46.704Z,97199.58
2019-05-17T02:19:49.808Z,97206.59
2019-05-17T02:20:53.181Z,97202.29
2019-05-17T02:21:57.036Z,97202.39
2019-05-17T02:23:00.591Z,97205.73
2019-05-17T02:24:03.346Z,97205.73
2019-05-17T02:25:07.279Z,97201.08
2019-05-17T02:26:13.575Z,97200.70
2019-05-17T02:27:17.000Z,97209.40
2019-05-17T02:28:21.534Z,97197.61
2019-05-17T02:29:33.842Z,97208.34
2019-05-17T02:30:36.634Z,97208.34
2019-05-17T02:31:43.219Z,97201.67
2019-05-17T02:32:45.152Z,97204.95
2019-05-17T02:33:48.540Z,97204.95
2019-05-17T02:34:53.561Z,97204.76
2019-05-17T02:35:58.501Z,97202.48
2019-05-17T02:37:02.965Z,97200.11
2019-05-17T02:38:06.510Z,97200.11
2019-05-17T02:39:12.871Z,97193.70
2019-05-17T02:40:15.318Z,97193.70
2019-05-17T02:41:18.752Z,97192.95
2019-05-17T02:42:22.482Z,97192.95
2019-05-17T02:43:25.739Z,97193.10
2019-05-17T02:44:29.199Z,97193.64
2019-05-17T02:45:33.043Z,97197.41
2019-05-17T02:46:37.235Z,97192.15
2019-05-17T02:47:43.669Z,97192.15
2019-05-17T02:48:46.417Z,97187.30
2019-05-17T02:49:53.126Z,97188.99
2019-05-17T02:50:56.478Z,97191.84
2019-05-17T02:52:02.912Z,97189.27
2019-05-17T02:53:04.963Z,97189.27
2019-05-17T02:54:07.857Z,97192.28
2019-05-17T02:55:12.828Z,97189.67
2019-05-17T02:56:16.420Z,97189.58
2019-05-17T02:57:22.946Z,97187.45
2019-05-17T02:58:24.454Z,97187.45
2019-05-17T02:59:27.790Z,97184.26
2019-05-17T03:00:33.742Z,97186.87
2019-05-17T03:01:36.085Z,97183.00
2019-05-17T03:02:38.867Z,97182.27
2019-05-17T03:03:43.653Z,97181.59
2019-05-17T03:04:48.251Z,97181.73
2019-05-17T03:05:53.601Z,97184.63
2019-05-17T03:06:56.220Z,97182.16
2019-05-17T03:07:59.604Z,97185.75
2019-05-17T03:09:03.593Z,97185.75
2019-05-17T03:10:18.089Z,97179.59
2019-05-17T03:11:13.455Z,97180.08
2019-05-17T03:12:16.994Z,97178.88
2019-05-17T03:13:23.181Z,97178.88
2019-05-17T03:14:25.159Z,97172.11
2019-05-17T03:15:27.954Z,97175.05
2019-05-17T03:16:33.830Z,97175.05
2019-05-17T03:17:36.080Z,97177.66
2019-05-17T03:18:39.525Z,97177.08
2019-05-17T03:19:43.513Z,97176.03
2019-05-17T03:20:47.133Z,97177.96
2019-05-17T03:21:49.931Z,97179.89
2019-05-17T03:22:54.980Z,97178.78
2019-05-17T03:23:58.093Z,97179.69
2019-05-17T03:25:03.447Z,97180.57
2019-05-17T03:26:05.947Z,97179.36
2019-05-17T03:27:13.113Z,97180.47
2019-05-17T03:28:13.869Z,97179.45
2019-05-17T03:29:17.267Z,97181.05
2019-05-17T03:30:25.251Z,97176.17
2019-05-17T03:31:26.943Z,97180.95
2019-05-17T03:32:35.819Z,97180.95
2019-05-17T03:33:36.516Z,97180.91
2019-05-17T03:34:44.488Z,97177.72
2019-05-17T03:35:46.143Z,97174.13
2019-05-17T03:36:55.759Z,97175.02
2019-05-17T03:37:55.234Z,97169.59
2019-05-17T03:38:58.053Z,97171.42
2019-05-17T03:40:04.725Z,97171.77
2019-05-17T03:41:17.908Z,97171.77
2019-05-17T03:42:13.205Z,97172.87
2019-05-17T03:43:17.675Z,97169.45
2019-05-17T03:44:22.583Z,97173.42
2019-05-17T03:45:25.970Z,97171.05
2019-05-17T03:46:29.410Z,97168.20
2019-05-17T03:47:33.464Z,97169.22
2019-05-17T03:48:38.871Z,97167.08
2019-05-17T03:49:43.677Z,97167.31
2019-05-17T03:50:47.641Z,97163.70
2019-05-17T03:52:02.806Z,97163.70
2019-05-17T03:53:18.176Z,97164.98
2019-05-17T03:54:18.310Z,97161.56
2019-05-17T03:55:26.213Z,97162.34
2019-05-17T03:56:33.031Z,97160.34
2019-05-17T03:57:38.993Z,97157.73
2019-05-17T03:58:43.331Z,97155.81
2019-05-17T03:59:46.921Z,97157.64
2019-05-17T04:00:53.106Z,97152.73
2019-05-17T04:01:55.295Z,97152.73
2019-05-17T04:03:04.709Z,97155.69
2019-05-17T04:04:13.656Z,97155.92
2019-05-17T04:05:16.498Z,97152.94
2019-05-17T04:06:23.824Z,97151.45
2019-05-17T04:07:25.660Z,97147.95
2019-05-17T04:08:29.450Z,97153.17
2019-05-17T04:09:32.887Z,97153.04
2019-05-17T04:10:38.206Z,97153.04
2019-05-17T04:11:42.941Z,97158.36
2019-05-17T04:12:48.869Z,97158.36
2019-05-17T04:13:54.167Z,97155.92
2019-05-17T04:14:57.877Z,97153.31
2019-05-17T04:16:05.708Z,97147.66
2019-05-17T04:17:05.808Z,97157.44
2019-05-17T04:18:08.603Z,97159.91
2019-05-17T04:19:13.950Z,97159.91
2019-05-17T04:20:16.458Z,97160.72
2019-05-17T04:21:23.310Z,97155.30
2019-05-17T04:22:25.409Z,97149.17
2019-05-17T04:23:28.956Z,97149.17
2019-05-17T04:24:32.559Z,97153.71
2019-05-17T04:25:38.727Z,97155.30
2019-05-17T04:26:43.813Z,97157.91
2019-05-17T04:27:47.331Z,97153.71
2019-05-17T04:28:52.954Z,97146.94
2019-05-17T04:29:55.110Z,97146.94
2019-05-17T04:30:57.974Z,97143.21
2019-05-17T04:32:03.901Z,97158.70
2019-05-17T04:33:07.488Z,97151.04
2019-05-17T04:34:13.521Z,97151.86
2019-05-17T04:35:17.429Z,97151.86
2019-05-17T04:36:22.531Z,97153.89
2019-05-17T04:37:25.958Z,97157.27
2019-05-17T04:38:32.857Z,97154.23
2019-05-17T04:39:33.813Z,97155.82
2019-05-17T04:40:37.711Z,97157.17
2019-05-17T04:41:46.947Z,97155.82
2019-05-17T04:42:45.619Z,97155.82
2019-05-17T04:43:48.438Z,97149.55
2019-05-17T04:44:55.604Z,97154.36
2019-05-17T04:46:02.456Z,97156.94
2019-05-17T04:47:04.180Z,97159.31
2019-05-17T04:48:06.995Z,97150.73
2019-05-17T04:49:13.511Z,97154.56
2019-05-17T04:50:14.927Z,97153.01
2019-05-17T04:51:18.279Z,97150.98
2019-05-17T04:52:33.335Z,97157.34
2019-05-17T04:53:35.378Z,97154.39
2019-05-17T04:54:38.181Z,97150.67
2019-05-17T04:55:43.083Z,97155.62
2019-05-17T04:56:46.678Z,97155.62
2019-05-17T04:57:53.026Z,97152.33
2019-05-17T04:58:55.058Z,97146.77
2019-05-17T04:59:58.496Z,97149.72
2019-05-17T05:01:03.932Z,97150.97
2019-05-17T05:02:07.033Z,97150.97
2019-05-17T05:03:12.564Z,97160.33
2019-05-17T05:04:15.705Z,97155.45
2019-05-17T05:05:22.462Z,97155.45
2019-05-17T05:06:24.100Z,97156.46
2019-05-17T05:07:33.543Z,97148.88
2019-05-17T05:08:36.530Z,97148.88
2019-05-17T05:09:39.377Z,97155.24
2019-05-17T05:10:42.984Z,97159.75
2019-05-17T05:11:59.435Z,97161.54
2019-05-17T05:12:52.497Z,97152.88
2019-05-17T05:13:57.410Z,97152.88
2019-05-17T05:15:03.551Z,97161.07
2019-05-17T05:16:06.162Z,97157.14
2019-05-17T05:17:09.514Z,97152.53
2019-05-17T05:18:13.595Z,97162.89
2019-05-17T05:19:17.283Z,97157.91
2019-05-17T05:20:22.119Z,97151.58
2019-05-17T05:21:25.978Z,97159.95
2019-05-17T05:22:28.774Z,97152.84
2019-05-17T05:23:33.644Z,97154.19
2019-05-17T05:24:36.773Z,97144.13
2019-05-17T05:25:42.741Z,97152.20
2019-05-17T05:26:44.891Z,97156.02
2019-05-17T05:27:48.667Z,97152.88
2019-05-17T05:28:52.902Z,97146.88
2019-05-17T05:29:58.442Z,97151.34
2019-05-17T05:44:05.539Z,97151.48
2019-05-17T05:45:09.102Z,97154.91
2019-05-17T05:46:11.977Z,97158.49
2019-05-17T05:47:15.471Z,97155.48
2019-05-17T05:48:18.347Z,97155.48
2019-05-17T05:49:27.223Z,97158.66
2019-05-17T05:50:32.376Z,97154.02
2019-05-17T05:52:44.102Z,97151.45
2019-05-17T05:53:47.578Z,97158.63
2019-05-17T05:54:54.088Z,97155.98
2019-05-17T05:55:58.051Z,97156.53
2019-05-17T05:57:02.345Z,97156.53
2019-05-17T05:58:07.157Z,97152.70
2019-05-17T05:59:12.385Z,97149.34
2019-05-17T06:00:35.925Z,97149.34
2019-05-17T06:03:36.997Z,97156.23
2019-05-17T06:04:42.338Z,97158.97
2019-05-17T06:05:45.145Z,97159.80
2019-05-17T06:06:49.041Z,97155.71
2019-05-17T06:07:52.217Z,97160.66
2019-05-17T06:08:55.716Z,97156.66
2019-05-17T06:10:02.025Z,97159.41
2019-05-17T06:11:04.675Z,97153.67
2019-05-17T06:12:20.798Z,97153.67
2019-05-17T06:13:15.287Z,97154.90
2019-05-17T06:14:18.165Z,97156.05
2019-05-17T06:15:21.987Z,97155.48
2019-05-17T06:16:25.221Z,97158.22
2019-05-17T06:17:28.752Z,97157.64
2019-05-17T06:18:31.940Z,97158.19
2019-05-17T06:19:35.396Z,97158.34
2019-05-17T06:20:38.256Z,97158.34
2019-05-17T06:21:43.881Z,97154.55
2019-05-17T06:22:47.159Z,97156.73
2019-05-17T06:23:51.630Z,97150.73
2019-05-17T06:24:54.570Z,97154.78
2019-05-17T06:25:57.902Z,97155.06
2019-05-17T06:27:01.903Z,97155.06
2019-05-17T06:28:05.504Z,97158.20
2019-05-17T06:29:11.922Z,97154.67
2019-05-17T06:30:15.423Z,97154.38
2019-05-17T06:31:18.342Z,97157.87
2019-05-17T06:32:22.840Z,97148.58
2019-05-17T06:33:30.904Z,97148.70
2019-05-17T06:34:33.026Z,97149.08
2019-05-17T06:35:38.580Z,97149.08
2019-05-17T06:36:43.121Z,97140.80
2019-05-17T06:37:46.419Z,97140.70
2019-05-17T06:38:52.619Z,97143.89
2019-05-17T06:39:54.592Z,97139.80
2019-05-17T06:41:01.656Z,97143.40
2019-05-17T06:42:03.212Z,97143.09
2019-05-17T06:43:06.608Z,97142.97
2019-05-17T06:44:15.305Z,97145.27
2019-05-17T06:45:18.681Z,97145.27
2019-05-17T06:46:22.075Z,97142.67
2019-05-17T06:47:25.817Z,97147.42
2019-05-17T06:48:31.597Z,97144.56
2019-05-17T06:49:34.397Z,97144.56
2019-05-17T06:50:37.506Z,97139.17
2019-05-17T06:51:42.675Z,97139.17
2019-05-17T06:52:45.350Z,97140.64
2019-05-17T06:53:48.741Z,97134.95
2019-05-17T06:54:56.143Z,97138.52
2019-05-17T06:55:59.615Z,97139.05
2019-05-17T06:57:04.961Z,97143.92
2019-05-17T06:58:08.334Z,97143.92
2019-05-17T06:59:11.150Z,97141.23
2019-05-17T07:00:20.861Z,97144.14
2019-05-17T07:01:22.954Z,97145.95
2019-05-17T07:02:26.350Z,97139.88
2019-05-17T07:03:29.796Z,97137.48
2019-05-17T07:04:33.260Z,97138.86
2019-05-17T07:05:40.199Z,97143.24
2019-05-17T07:06:49.428Z,97139.27
2019-05-17T07:07:51.578Z,97138.59
2019-05-17T07:08:57.826Z,97135.89
2019-05-17T07:10:05.413Z,97135.89
2019-05-17T07:11:09.770Z,97135.58
2019-05-17T07:12:13.141Z,97135.58
2019-05-17T07:13:16.643Z,97129.94
2019-05-17T07:14:20.065Z,97132.19
2019-05-17T07:15:23.517Z,97132.19
2019-05-17T07:16:26.467Z,97130.16
2019-05-17T07:17:30.523Z,97130.16
2019-05-17T07:18:33.788Z,97135.36
2019-05-17T07:19:39.878Z,97123.36
2019-05-17T07:20:41.669Z,97128.44
2019-05-17T07:21:49.412Z,97128.44
2019-05-17T07:22:50.815Z,97132.86
2019-05-17T07:23:54.176Z,97123.91
2019-05-17T07:24:59.548Z,97120.27
2019-05-17T07:26:02.307Z,97127.73
2019-05-17T07:27:05.229Z,97125.68
2019-05-17T07:28:09.980Z,97126.48
2019-05-17T07:29:16.407Z,97131.55
2019-05-17T07:30:19.829Z,97131.55
2019-05-17T07:31:23.390Z,97131.34
2019-05-17T07:32:31.966Z,97118.34
2019-05-17T07:33:34.767Z,97127.27
2019-05-17T07:34:40.105Z,97127.27
2019-05-17T07:35:42.708Z,97129.19
2019-05-17T07:36:51.773Z,97129.08
2019-05-17T07:37:54.845Z,97125.00
2019-05-17T07:39:00.615Z,97128.27
2019-05-17T07:40:05.364Z,97125.44
2019-05-17T07:41:10.117Z,97129.16
2019-05-17T07:42:15.323Z,97132.34
2019-05-17T07:43:20.574Z,97132.34
2019-05-17T07:44:23.728Z,97130.69
2019-05-17T07:45:26.928Z,97134.74
2019-05-17T07:46:29.847Z,97128.46
2019-05-17T07:47:33.147Z,97127.11
2019-05-17T07:48:36.264Z,97131.88
2019-05-17T07:49:40.438Z,97131.88
2019-05-17T07:50:44.209Z,97128.06
2019-05-17T07:51:47.478Z,97128.06
2019-05-17T07:52:50.269Z,97127.37
2019-05-17T07:53:53.455Z,97122.63
2019-05-17T07:54:56.088Z,97123.00
2019-05-17T07:55:59.749Z,97125.15
2019-05-17T07:57:10.713Z,97124.15
2019-05-17T07:58:14.029Z,97127.32
2019-05-17T07:59:17.177Z,97125.53
2019-05-17T08:00:20.401Z,97125.63
2019-05-17T08:01:23.150Z,97120.87
2019-05-17T08:02:26.589Z,97120.87
2019-05-17T08:03:40.361Z,97119.30
2019-05-17T08:04:43.120Z,97119.30
2019-05-17T08:05:47.247Z,97115.57
2019-05-17T08:06:51.573Z,97114.09
2019-05-17T08:07:54.701Z,97113.41
2019-05-17T08:09:04.329Z,97109.14
2019-05-17T08:10:05.449Z,97111.26
2019-05-17T08:11:11.431Z,97111.84
2019-05-17T08:12:14.143Z,97116.34
2019-05-17T08:13:27.462Z,97110.81
2019-05-17T08:14:29.554Z,97110.81
2019-05-17T08:15:26.767Z,97120.31
2019-05-17T08:16:30.344Z,97108.66
2019-05-17T08:17:33.936Z,97107.20
2019-05-17T08:18:37.444Z,97108.66
2019-05-17T08:19:40.643Z,97111.83
2019-05-17T08:20:43.685Z,97109.78
2019-05-17T08:21:47.065Z,97114.21
2019-05-17T08:22:50.249Z,97113.65
2019-05-17T08:23:53.692Z,97101.30
2019-05-17T08:24:56.926Z,97106.36
2019-05-17T08:26:00.709Z,97105.95
2019-05-17T08:27:03.961Z,97107.63
2019-05-17T08:28:07.352Z,97105.59
2019-05-17T08:29:10.589Z,97105.59
2019-05-17T08:30:13.867Z,97104.67
2019-05-17T08:31:20.899Z,97103.31
2019-05-17T08:32:24.408Z,97103.34
2019-05-17T08:33:29.837Z,97100.19
2019-05-17T08:34:33.005Z,97103.91
2019-05-17T08:35:35.759Z,97100.84
2019-05-17T08:36:40.685Z,97098.71
2019-05-17T08:37:43.389Z,97085.48
2019-05-17T08:38:46.833Z,97085.48
2019-05-17T08:39:51.354Z,97098.81
2019-05-17T08:40:54.837Z,97102.12
2019-05-17T08:42:01.201Z,97102.12
2019-05-17T08:43:05.645Z,97086.73
2019-05-17T08:44:10.065Z,97086.73
2019-05-17T08:45:13.511Z,97090.92
2019-05-17T08:46:16.568Z,97090.92
2019-05-17T08:47:23.564Z,97088.09
2019-05-17T08:48:30.153Z,97087.27
2019-05-17T08:49:34.553Z,97098.48
2019-05-17T08:50:37.261Z,97079.89
2019-05-17T08:51:40.547Z,97091.00
2019-05-17T08:52:45.228Z,97091.00
2019-05-17T08:53:50.803Z,97081.81
2019-05-17T08:54:53.690Z,97089.03
2019-05-17T08:55:57.181Z,97082.17
2019-05-17T08:57:00.727Z,97085.44
2019-05-17T08:58:04.275Z,97081.92
2019-05-17T08:59:09.725Z,97081.92
2019-05-17T09:00:13.181Z,97093.03
2019-05-17T09:01:16.053Z,97068.69
2019-05-17T09:02:20.003Z,97085.46
2019-05-17T09:03:22.700Z,97090.96
2019-05-17T09:04:26.150Z,97080.48
2019-05-17T09:05:30.331Z,97080.48
2019-05-17T09:06:33.746Z,97081.72
2019-05-17T09:07:36.434Z,97079.31
2019-05-17T09:08:40.519Z,97079.31
2019-05-17T09:09:43.431Z,97086.38
2019-05-17T09:10:46.807Z,97077.08
2019-05-17T09:11:50.163Z,97076.88
2019-05-17T09:12:55.228Z,97076.88
2019-05-17T09:14:01.658Z,97070.03
2019-05-17T09:15:05.809Z,97071.19
2019-05-17T09:16:11.382Z,97067.66
2019-05-17T09:17:21.054Z,97074.28
2019-05-17T09:18:29.963Z,97070.98
2019-05-17T09:19:33.080Z,97060.07
2019-05-17T09:20:35.815Z,97068.94
2019-05-17T09:21:39.838Z,97064.16
2019-05-17T09:22:45.927Z,97064.16
2019-05-17T09:23:50.373Z,97063.91
2019-05-17T09:24:54.896Z,97055.25
2019-05-17T09:25:59.512Z,97071.92
2019-05-17T09:27:03.802Z,97067.36
2019-05-17T09:28:09.868Z,97067.36
2019-05-17T09:29:11.580Z,97063.91
2019-05-17T09:30:15.878Z,97067.34
2019-05-17T09:31:21.168Z,97066.66
2019-05-17T09:32:24.684Z,97063.66
2019-05-17T09:33:29.994Z,97067.70
2019-05-17T09:34:33.552Z,97067.77
2019-05-17T09:35:40.569Z,97065.39
2019-05-17T09:36:43.795Z,97059.30
2019-05-17T09:37:49.887Z,97059.30
2019-05-17T09:38:55.813Z,97063.42
2019-05-17T09:39:59.828Z,97066.33
2019-05-17T09:41:03.351Z,97056.69
2019-05-17T09:42:06.679Z,97059.50
2019-05-17T09:43:16.181Z,97057.69
2019-05-17T09:44:20.652Z,97052.73
2019-05-17T09:45:24.333Z,97052.73
2019-05-17T09:46:27.204Z,97059.22
2019-05-17T09:47:30.424Z,97058.06
2019-05-17T09:48:33.308Z,97058.06
2019-05-17T09:49:39.457Z,97055.55
2019-05-17T09:50:42.181Z,97055.55
2019-05-17T09:51:45.693Z,97054.08
2019-05-17T09:52:56.242Z,97052.42
2019-05-17T09:54:01.363Z,97050.44
2019-05-17T09:55:21.962Z,97047.17
2019-05-17T09:56:25.462Z,97052.58
2019-05-17T09:57:29.824Z,97048.34
2019-05-17T09:58:43.737Z,97053.20
2019-05-17T09:59:46.664Z,97051.23
2019-05-17T10:00:50.218Z,97056.20
2019-05-17T10:01:53.440Z,97056.20
2019-05-17T10:03:00.154Z,97055.20
2019-05-17T10:04:07.636Z,97056.03
2019-05-17T10:05:19.961Z,97064.87
2019-05-17T10:06:20.198Z,97064.87
2019-05-17T10:07:25.162Z,97049.63
2019-05-17T10:08:31.844Z,97061.84
2019-05-17T10:09:39.845Z,97061.84
2019-05-17T10:10:43.852Z,97057.83
2019-05-17T10:11:49.230Z,97055.24
2019-05-17T10:12:52.030Z,97055.24
2019-05-17T10:14:01.086Z,97052.91
2019-05-17T10:15:04.053Z,97061.78
2019-05-17T10:16:09.962Z,97052.13
2019-05-17T10:17:11.751Z,97056.92
2019-05-17T10:18:15.662Z,97054.88
2019-05-17T10:19:21.899Z,97050.64
2019-05-17T10:20:25.099Z,97044.06
2019-05-17T10:21:30.243Z,97053.75
2019-05-17T10:22:36.302Z,97045.91
2019-05-17T10:23:40.674Z,97049.67
2019-05-17T10:24:44.222Z,97050.48
2019-05-17T10:25:47.090Z,97050.48
2019-05-17T10:26:51.022Z,97046.43
2019-05-17T10:27:54.365Z,97052.84
2019-05-17T10:28:59.387Z,97052.84
2019-05-17T10:30:05.220Z,97055.86
2019-05-17T10:43:10.054Z,97061.91
2019-05-17T10:44:13.706Z,97061.91
2019-05-17T10:45:19.873Z,97056.70
2019-05-17T10:46:23.484Z,97057.16
2019-05-17T10:47:30.147Z,97058.52
2019-05-17T10:48:35.241Z,97059.35
2019-05-17T10:49:43.869Z,97059.35
2019-05-17T10:50:49.510Z,97069.36
2019-05-17T10:51:56.906Z,97069.36
2019-05-17T10:53:03.662Z,97060.00
2019-05-17T10:54:10.790Z,97060.00
2019-05-17T10:55:14.463Z,97066.91
2019-05-17T10:56:19.895Z,97061.33
2019-05-17T10:57:24.389Z,97061.33
2019-05-17T10:58:33.170Z,97062.08
2019-05-17T10:59:40.131Z,97060.75
2019-05-17T11:00:43.495Z,97066.42
2019-05-17T11:01:50.159Z,97067.23
2019-05-17T11:02:57.217Z,97069.95
2019-05-17T11:04:00.575Z,97062.56
2019-05-17T11:05:03.783Z,97065.25
2019-05-17T11:06:07.229Z,97064.86
2019-05-17T11:07:10.678Z,97064.86
2019-05-17T11:08:19.734Z,97061.14
2019-05-17T11:09:22.459Z,97059.77
2019-05-17T11:10:25.972Z,97064.59
2019-05-17T11:11:29.221Z,97059.42
2019-05-17T11:12:32.608Z,97064.21
2019-05-17T11:13:35.856Z,97061.39
2019-05-17T11:14:52.148Z,97059.64
2019-05-17T11:15:46.689Z,97061.39
2019-05-17T11:16:50.166Z,97065.53
2019-05-17T11:17:57.194Z,97065.53
2019-05-17T11:19:03.237Z,97058.80
2019-05-17T11:20:08.456Z,97060.52
2019-05-17T11:21:12.547Z,97060.52
2019-05-17T11:22:15.860Z,97061.36
2019-05-17T11:23:19.426Z,97064.71
2019-05-17T11:24:22.331Z,97066.95
2019-05-17T11:25:26.696Z,97058.69
2019-05-17T11:26:30.641Z,97056.92
2019-05-17T11:27:34.119Z,97056.42
2019-05-17T11:28:37.125Z,97056.42
2019-05-17T11:29:42.806Z,97058.60
2019-05-17T11:30:45.624Z,97058.60
2019-05-17T11:31:53.217Z,97049.98
2019-05-17T11:32:59.622Z,97054.02
2019-05-17T11:34:06.075Z,97061.01
2019-05-17T11:35:08.934Z,97059.47
2019-05-17T11:36:14.250Z,97059.47
2019-05-17T11:37:19.906Z,97055.66
2019-05-17T11:38:23.351Z,97055.66
2019-05-17T11:39:26.802Z,97054.97
2019-05-17T11:40:30.209Z,97048.16
2019-05-17T11:41:33.087Z,97046.94
2019-05-17T11:42:36.529Z,97052.58
2019-05-17T11:43:39.344Z,97050.44
2019-05-17T11:44:43.109Z,97047.12
2019-05-17T11:45:51.121Z,97047.12
2019-05-17T11:46:54.652Z,97049.34
2019-05-17T11:47:57.846Z,97056.47
2019-05-17T11:49:01.331Z,97056.47
2019-05-17T11:50:04.601Z,97057.45
2019-05-17T11:51:08.025Z,97042.70
2019-05-17T11:52:11.239Z,97042.70
2019-05-17T11:53:14.709Z,97054.91
2019-05-17T11:54:17.592Z,97054.19
2019-05-17T11:55:21.306Z,97047.89
2019-05-17T11:56:25.649Z,97047.98
2019-05-17T11:57:29.113Z,97046.55
2019-05-17T11:58:38.394Z,97046.55
2019-05-17T11:59:46.702Z,97042.68
2019-05-17T12:00:52.039Z,97046.27
2019-05-17T12:01:55.554Z,97041.23
2019-05-17T12:02:58.559Z,97041.23
2019-05-17T12:04:02.000Z,97041.86
2019-05-17T12:05:08.370Z,97046.10
2019-05-17T12:06:12.209Z,97039.03
2019-05-17T12:07:15.176Z,97039.03
2019-05-17T12:08:19.133Z,97040.08
2019-05-17T12:09:36.505Z,97040.41
2019-05-17T12:10:27.643Z,97040.41
2019-05-17T12:11:31.201Z,97046.32
2019-05-17T12:12:34.913Z,97046.32
2019-05-17T12:13:37.851Z,97041.33
2019-05-17T12:14:44.448Z,97035.77
2019-05-17T12:15:47.351Z,97039.05
2019-05-17T12:16:51.435Z,97042.53
2019-05-17T12:17:54.568Z,97032.30
2019-05-17T12:18:58.345Z,97032.30
2019-05-17T12:20:01.464Z,97035.10
2019-05-17T12:21:12.432Z,97036.40
2019-05-17T12:22:15.430Z,97036.40
2019-05-17T12:23:18.894Z,97035.40
2019-05-17T12:24:21.840Z,97037.91
2019-05-17T12:25:25.486Z,97037.91
2019-05-17T12:26:28.397Z,97038.05
2019-05-17T12:27:33.999Z,97038.05
2019-05-17T12:28:38.707Z,97034.27
2019-05-17T12:29:42.541Z,97034.27
2019-05-17T12:30:48.697Z,97032.84
2019-05-17T12:31:51.340Z,97033.89
2019-05-17T12:32:54.331Z,97033.89
2019-05-17T12:33:57.937Z,97034.50
2019-05-17T12:35:00.885Z,97034.50
2019-05-17T12:36:07.109Z,97026.94
2019-05-17T12:37:11.904Z,97026.94
2019-05-17T12:38:15.429Z,97035.69
2019-05-17T12:39:19.147Z,97023.24
2019-05-17T12:40:22.822Z,97027.31
2019-05-17T12:41:25.879Z,97023.58
2019-05-17T12:42:30.197Z,97031.62
2019-05-17T12:43:33.126Z,97028.70
2019-05-17T12:44:37.317Z,97028.70
2019-05-17T12:45:40.358Z,97023.59
2019-05-17T12:46:46.166Z,97023.59
2019-05-17T12:47:49.014Z,97028.73
2019-05-17T12:48:53.020Z,97026.22
2019-05-17T12:49:55.938Z,97023.62
2019-05-17T12:50:59.293Z,97029.36
2019-05-17T12:52:02.131Z,97027.32
2019-05-17T12:53:07.042Z,97023.02
2019-05-17T12:54:09.967Z,97023.02
2019-05-17T12:55:14.198Z,97032.76
2019-05-17T12:56:22.313Z,97021.72
2019-05-17T12:57:39.367Z,97021.72
2019-05-17T12:58:39.087Z,97029.70
2019-05-17T12:59:44.889Z,97031.40
2019-05-17T13:00:51.834Z,97026.58
2019-05-17T13:01:56.111Z,97025.98
2019-05-17T13:02:58.958Z,97026.66
2019-05-17T13:04:02.893Z,97028.47
2019-05-17T13:05:05.865Z,97027.93